Time;durP1;ratioP1;P1;durP2;ratioP2;P2;SDS_P1;SDS_P2;PMS_P1;PMS_P2;Temp;Humidity;BMP_temperature;BMP_pressure;BME280_temperature;BME280_humidity;BME280_pressure;Samples;Min_cycle;Max_cycle;Signal;HPM_P1;HPM_P2
2023/03/06 06:26:06;;;;;;;29.30;12.85;;;;;;;;;;4866579;29;20049;-93
2023/03/06 06:41:17;;;;;;;23.75;9.75;;;;;;;;;;4956095;28;20086;-94
2023/03/06 07:01:01;;;;;;;14.35;6.50;;;;;;;;;;5472452;23;20495;-95
2023/03/06 07:06:17;;;;;;;27.88;11.60;;;;;;;;;;5732327;23;20592;-96
2023/03/06 07:08:52;;;;;;;24.35;10.00;;;;;;;;;;4918859;29;20040;-96
2023/03/06 07:45:12;;;;;;;15.60;7.00;;;;;;;;;;5103033;23;20055;31
2023/03/06 07:47:56;;;;;;;;;;;;;;;;;;4938182;28;20040;-95
2023/03/06 07:56:16;;;;;;;18.40;7.80;;;;;;;;;;4894369;29;20045;-95
2023/03/06 08:01:35;;;;;;;13.82;7.63;;;;;;;;;;4891428;29;20053;-93
2023/03/06 08:07:09;;;;;;;14.25;6.72;;;;;;;;;;4896608;29;20112;-94
2023/03/06 08:16:20;;;;;;;11.85;6.50;;;;;;;;;;4979951;23;20147;-94
2023/03/06 08:21:32;;;;;;;12.88;6.40;;;;;;;;;;4974582;28;20041;-92
2023/03/06 08:24:25;;;;;;;13.77;6.70;;;;;;;;;;4957017;28;20484;-95
2023/03/06 08:26:51;;;;;;;12.43;6.57;;;;;;;;;;4918597;29;20126;-93
2023/03/06 08:35:25;;;;;;;12.52;6.30;;;;;;;;;;4967940;28;20042;-95
2023/03/06 08:38:07;;;;;;;16.52;7.28;;;;;;;;;;4955596;28;20040;-96
2023/03/06 08:40:54;;;;;;;15.75;8.00;;;;;;;;;;4954565;28;20039;-96
2023/03/06 08:43:24;;;;;;;16.35;7.60;;;;;;;;;;4955422;28;20477;-96
2023/03/06 08:46:02;;;;;;;14.70;7.43;;;;;;;;;;4966157;28;20050;-96
2023/03/06 08:48:36;;;;;;;15.50;7.88;;;;;;;;;;4955099;29;20046;-95
2023/03/06 08:51:02;;;;;;;14.95;7.82;;;;;;;;;;4959096;28;20047;-90
2023/03/06 08:56:50;;;;;;;15.93;7.70;;;;;;;;;;4961648;28;20055;-96
2023/03/06 08:59:30;;;;;;;17.25;8.63;;;;;;;;;;4934259;29;20060;-95
2023/03/06 09:02:15;;;;;;;15.80;8.00;;;;;;;;;;4922561;29;20043;-96
2023/03/06 09:04:43;;;;;;;20.27;8.48;;;;;;;;;;4925310;29;20023;-94
2023/03/06 09:10:16;;;;;;;14.05;7.40;;;;;;;;;;4938726;29;20035;-96
2023/03/06 09:12:45;;;;;;;15.73;7.43;;;;;;;;;;4922205;29;20067;-96
2023/03/06 09:15:36;;;;;;;18.67;7.75;;;;;;;;;;4925018;29;20118;-92
2023/03/06 09:18:11;;;;;;;18.80;8.20;;;;;;;;;;4923634;29;20079;-96
2023/03/06 09:21:08;;;;;;;;;;;;;;;;;;;;;
2023/03/06 09:27:10;;;;;;;20.15;8.68;;;;;;;;;;4827429;29;20090;-89
2023/03/06 09:32:59;;;;;;;18.05;8.93;;;;;;;;;;4784172;23;20089;-93
2023/03/06 09:38:50;;;;;;;15.55;8.88;;;;;;;;;;4979044;28;20053;-96
2023/03/06 09:44:07;;;;;;;17.17;9.05;;;;;;;;;;5271665;23;20039;-94
2023/03/06 09:47:02;;;;;;;15.95;8.80;;;;;;;;;;4968581;28;20034;-92
2023/03/06 09:53:14;;;;;;;14.23;7.95;;;;;;;;;;4854976;29;20036;-96
2023/03/06 09:55:42;;;;;;;16.02;8.55;;;;;;;;;;4962666;28;20400;-94
2023/03/06 09:58:16;;;;;;;17.33;9.40;;;;;;;;;;4960036;28;20376;-94
2023/03/06 10:00:57;;;;;;;17.88;9.00;;;;;;;;;;4959847;28;20046;-95
2023/03/06 10:03:41;;;;;;;21.13;9.43;;;;;;;;;;4959747;28;20066;-95
2023/03/06 10:06:26;;;;;;;18.10;9.68;;;;;;;;;;4971647;28;20066;-93
2023/03/06 10:08:57;;;;;;;21.88;9.75;;;;;;;;;;4967288;28;20038;-96
2023/03/06 10:14:47;;;;;;;17.25;9.32;;;;;;;;;;4976388;28;20048;-95
2023/03/06 10:17:37;;;;;;;17.77;9.23;;;;;;;;;;4919117;28;20043;-96
2023/03/06 10:20:22;;;;;;;17.85;9.88;;;;;;;;;;4863184;29;20041;-94
2023/03/06 10:23:19;;;;;;;15.77;9.98;;;;;;;;;;4991047;28;20034;-94
2023/03/06 10:26:15;;;;;;;18.08;10.48;;;;;;;;;;4974824;28;20023;-93
2023/03/06 10:28:51;;;;;;;16.70;9.75;;;;;;;;;;4968220;28;20045;-94
2023/03/06 10:31:27;;;;;;;22.27;10.32;;;;;;;;;;4958945;28;20081;-89
2023/03/06 10:34:11;;;;;;;18.58;10.55;;;;;;;;;;4976230;28;20029;-95
2023/03/06 10:36:44;;;;;;;22.10;11.88;;;;;;;;;;4958792;28;20050;-95
2023/03/06 10:39:14;;;;;;;18.08;10.55;;;;;;;;;;4958647;28;20043;-92
2023/03/06 10:41:43;;;;;;;20.40;11.23;;;;;;;;;;4952733;28;20022;-93
2023/03/06 10:44:28;;;;;;;23.45;13.00;;;;;;;;;;4969427;28;20105;-93
2023/03/06 10:46:57;;;;;;;23.48;11.70;;;;;;;;;;4974475;28;20030;-95
2023/03/06 10:49:29;;;;;;;18.92;10.70;;;;;;;;;;4962445;28;20037;-94
2023/03/06 10:52:00;;;;;;;20.13;11.18;;;;;;;;;;4974632;28;20034;-94
2023/03/06 10:57:35;;;;;;;21.25;10.50;;;;;;;;;;5312629;23;20055;-93
2023/03/06 11:00:03;;;;;;;20.90;10.45;;;;;;;;;;4948695;28;20039;-94
2023/03/06 11:02:38;;;;;;;20.77;11.55;;;;;;;;;;4958079;28;20041;-89
2023/03/06 11:05:05;;;;;;;18.42;10.65;;;;;;;;;;4958941;28;20030;-93
2023/03/06 11:07:54;;;;;;;18.23;10.25;;;;;;;;;;4959457;28;20058;-93
2023/03/06 11:10:22;;;;;;;18.75;10.45;;;;;;;;;;4954978;29;20035;-90
2023/03/06 11:13:09;;;;;;;18.77;10.23;;;;;;;;;;4955032;29;20033;-94
2023/03/06 11:15:37;;;;;;;23.42;9.48;;;;;;;;;;4958736;28;20026;-95
2023/03/06 11:18:04;;;;;;;17.45;9.88;;;;;;;;;;4954629;29;20027;-94
2023/03/06 11:20:44;;;;;;;19.45;9.93;;;;;;;;;;4958832;28;20522;-93
2023/03/06 11:25:49;;;;;;;19.02;10.48;;;;;;;;;;4975557;23;20445;-92
2023/03/06 11:28:24;;;;;;;18.65;10.40;;;;;;;;;;4954526;29;20484;-93
2023/03/06 11:31:10;;;;;;;17.73;9.88;;;;;;;;;;4969260;28;20035;-95
2023/03/06 11:37:03;;;;;;;15.77;8.52;;;;;;;;;;4951990;28;20492;-95
2023/03/06 11:40:10;;;;;;;21.80;9.52;;;;;;;;;;4955111;29;20039;-94
2023/03/06 11:42:36;;;;;;;21.08;10.90;;;;;;;;;;4845269;29;20368;-94
2023/03/06 11:45:20;;;;;;;16.77;9.90;;;;;;;;;;4936850;29;20039;-94
2023/03/06 11:47:49;;;;;;;19.05;9.88;;;;;;;;;;4953984;28;20047;-91
2023/03/06 11:50:19;;;;;;;19.60;10.40;;;;;;;;;;4965645;28;20085;-93
2023/03/06 11:53:01;;;;;;;20.35;11.00;;;;;;;;;;4955800;29;20027;-91
2023/03/06 11:55:53;;;;;;;19.85;11.35;;;;;;;;;;4954787;29;20074;-92
2023/03/06 12:01:54;;;;;;;18.02;10.30;;;;;;;;;;4916267;29;20068;-95
2023/03/06 12:04:47;;;;;;;22.63;11.82;;;;;;;;;;4903699;29;20037;-96
2023/03/06 12:07:38;;;;;;;21.08;11.40;;;;;;;;;;4896784;29;20035;-94
2023/03/06 12:10:04;;;;;;;19.55;11.82;;;;;;;;;;4881024;29;20062;-93
2023/03/06 12:12:48;;;;;;;23.05;11.40;;;;;;;;;;4893688;29;20466;-93
2023/03/06 12:15:43;;;;;;;22.13;11.43;;;;;;;;;;4900216;29;20039;-90
2023/03/06 12:18:28;;;;;;;20.45;10.55;;;;;;;;;;4873718;29;20053;-96
2023/03/06 12:21:27;;;;;;;20.80;10.88;;;;;;;;;;4863204;29;20033;-96
2023/03/06 12:24:14;;;;;;;20.23;10.52;;;;;;;;;;4862379;29;20046;-96
2023/03/06 12:26:59;;;;;;;19.45;10.77;;;;;;;;;;4897842;29;20049;-90
2023/03/06 12:29:32;;;;;;;22.40;10.75;;;;;;;;;;4953357;28;20427;-92
2023/03/06 12:32:09;;;;;;;19.58;10.73;;;;;;;;;;4970993;28;20113;-94
2023/03/06 12:34:42;;;;;;;20.70;11.30;;;;;;;;;;4957197;28;20093;-93
2023/03/06 12:37:11;;;;;;;22.85;11.95;;;;;;;;;;4993698;28;20037;-92
2023/03/06 12:39:46;;;;;;;18.65;10.50;;;;;;;;;;4977283;28;20019;-91
2023/03/06 12:42:33;;;;;;;19.98;10.38;;;;;;;;;;4969210;29;20019;-93
2023/03/06 12:45:10;;;;;;;19.45;10.63;;;;;;;;;;4959661;29;20028;-93
2023/03/06 12:47:41;;;;;;;20.55;10.60;;;;;;;;;;4958221;29;20469;-92
2023/03/06 12:50:13;;;;;;;23.73;12.43;;;;;;;;;;4958726;29;20054;-92
2023/03/06 12:52:41;;;;;;;23.10;11.25;;;;;;;;;;4958400;29;20030;-94
2023/03/06 12:55:07;;;;;;;21.73;11.00;;;;;;;;;;4957962;29;20030;-92
2023/03/06 12:57:34;;;;;;;18.08;10.18;;;;;;;;;;4941843;29;20477;-92
2023/03/06 13:00:00;;;;;;;22.30;11.27;;;;;;;;;;4957911;29;20066;-93
2023/03/06 13:02:29;;;;;;;18.95;10.23;;;;;;;;;;4957320;29;20063;-93
2023/03/06 13:05:01;;;;;;;18.98;11.15;;;;;;;;;;4957275;28;20059;-96
2023/03/06 13:07:33;;;;;;;20.85;10.90;;;;;;;;;;4957754;29;20062;-91
2023/03/06 13:10:09;;;;;;;19.45;10.35;;;;;;;;;;4958041;29;20039;-93
2023/03/06 13:12:48;;;;;;;23.08;10.13;;;;;;;;;;4957863;29;20031;-96
2023/03/06 13:15:28;;;;;;;18.63;10.15;;;;;;;;;;4958711;28;20091;-92
2023/03/06 13:17:55;;;;;;;17.73;9.65;;;;;;;;;;4957159;29;20035;-92
2023/03/06 13:20:29;;;;;;;17.90;10.25;;;;;;;;;;4957423;29;20050;-92
2023/03/06 13:22:56;;;;;;;18.65;10.63;;;;;;;;;;4956921;29;20031;-91
2023/03/06 13:25:23;;;;;;;19.27;10.07;;;;;;;;;;4966306;28;20582;-93
2023/03/06 13:27:52;;;;;;;19.15;9.77;;;;;;;;;;4977442;28;20082;-92
2023/03/06 13:30:20;;;;;;;18.92;10.27;;;;;;;;;;4960614;28;20065;-92
2023/03/06 13:32:48;;;;;;;20.98;10.88;;;;;;;;;;4960658;28;20061;-94
2023/03/06 13:35:30;;;;;;;23.05;11.93;;;;;;;;;;4967996;28;20098;-93
2023/03/06 13:38:12;;;;;;;19.50;10.55;;;;;;;;;;4959590;28;20030;-93
2023/03/06 13:40:38;;;;;;;20.52;11.48;;;;;;;;;;4959480;28;20122;-95
2023/03/06 13:43:07;;;;;;;23.95;12.25;;;;;;;;;;4959862;28;20475;-92
2023/03/06 13:45:38;;;;;;;18.95;9.60;;;;;;;;;;4960553;28;20190;-94
2023/03/06 13:48:04;;;;;;;20.63;10.50;;;;;;;;;;4971745;28;20031;-91
2023/03/06 13:50:44;;;;;;;21.20;11.00;;;;;;;;;;4968112;28;20042;-93
2023/03/06 13:53:19;;;;;;;18.98;10.73;;;;;;;;;;4963047;28;20456;-90
2023/03/06 13:56:07;;;;;;;15.77;9.82;;;;;;;;;;4979511;28;20049;-90
2023/03/06 13:58:43;;;;;;;17.35;9.70;;;;;;;;;;4962415;28;20046;-91
2023/03/06 14:01:17;;;;;;;19.60;10.75;;;;;;;;;;4962331;28;20031;-95
2023/03/06 14:04:02;;;;;;;20.48;10.70;;;;;;;;;;4962043;28;20066;-95
2023/03/06 14:06:34;;;;;;;17.55;9.88;;;;;;;;;;4962646;28;20034;-95
2023/03/06 14:09:23;;;;;;;17.00;9.90;;;;;;;;;;4976718;23;20063;-95
2023/03/06 14:11:53;;;;;;;31.10;17.73;;;;;;;;;;4949599;29;20131;-94
2023/03/06 14:14:43;;;;;;;18.17;9.57;;;;;;;;;;4961618;29;20031;-94
2023/03/06 14:17:23;;;;;;;19.88;10.57;;;;;;;;;;4959194;29;20028;-95
2023/03/06 14:19:49;;;;;;;20.02;11.02;;;;;;;;;;4942278;29;20078;-92
2023/03/06 14:22:21;;;;;;;20.08;10.48;;;;;;;;;;4956976;29;20031;-90
2023/03/06 14:24:52;;;;;;;18.77;9.93;;;;;;;;;;4956326;29;20098;-92
2023/03/06 14:27:40;;;;;;;18.38;10.15;;;;;;;;;;4970986;28;20035;-96
2023/03/06 14:30:08;;;;;;;20.73;10.20;;;;;;;;;;4957331;29;20045;-94
2023/03/06 14:32:34;;;;;;;20.58;11.00;;;;;;;;;;4957366;29;20102;-92
2023/03/06 14:35:05;;;;;;;18.95;10.38;;;;;;;;;;4956820;29;20027;-94
2023/03/06 14:37:37;;;;;;;19.13;11.32;;;;;;;;;;4959638;28;20047;-96
2023/03/06 14:40:18;;;;;;;;;;;;;;;;;;;;;
2023/03/06 14:42:49;;;;;;;19.45;10.48;;;;;;;;;;4960272;28;20041;-95
2023/03/06 14:45:17;;;;;;;22.60;11.80;;;;;;;;;;4957163;29;20047;-90
2023/03/06 14:47:48;;;;;;;24.48;11.45;;;;;;;;;;4957377;29;20060;-92
2023/03/06 14:50:18;;;;;;;19.58;10.05;;;;;;;;;;4956347;29;20122;-92
2023/03/06 14:52:44;;;;;;;17.58;10.98;;;;;;;;;;4958375;29;20119;-90
2023/03/06 14:55:30;;;;;;;18.80;10.98;;;;;;;;;;4957703;29;20024;-91
2023/03/06 14:57:58;;;;;;;20.42;11.23;;;;;;;;;;4957645;28;20047;-93
2023/03/06 15:00:28;;;;;;;18.25;10.07;;;;;;;;;;4955960;29;20464;-90
2023/03/06 15:02:56;;;;;;;18.35;9.98;;;;;;;;;;4957389;29;20030;-95
2023/03/06 16:12:36;;;;;;;;;;;;;;;;;;;;;
2023/03/06 16:31:28;;;;;;;31.02;14.80;;;;;;;;;;5988436;23;20849;-94
2023/03/06 16:34:10;;;;;;;26.17;14.48;;;;;;;;;;4969754;28;20039;-93
2023/03/06 16:37:23;;;;;;;25.88;12.98;;;;;;;;;;4971504;28;20095;-94
2023/03/06 17:01:08;;;;;;;33.60;17.20;;;;;;;;;;5016587;23;20059;-94
2023/03/06 17:03:48;;;;;;;43.80;25.02;;;;;;;;;;4956530;29;20043;-95
2023/03/06 17:09:37;;;;;;;68.65;35.90;;;;;;;;;;4910215;23;20027;-93
2023/03/06 17:12:13;;;;;;;57.28;32.08;;;;;;;;;;4951955;29;20027;-93
2023/03/06 17:14:42;;;;;;;48.28;29.17;;;;;;;;;;4945658;29;20023;-96
2023/03/06 17:20:07;;;;;;;224.55;125.97;;;;;;;;;;5131901;23;20059;-91
2023/03/06 17:25:37;;;;;;;36.17;18.17;;;;;;;;;;4968242;29;20089;-94
2023/03/06 17:30:39;;;;;;;41.35;19.40;;;;;;;;;;5396829;23;20057;-90
2023/03/06 17:33:14;;;;;;;38.25;18.77;;;;;;;;;;4990844;28;20094;-95
2023/03/06 17:36:02;;;;;;;44.72;20.25;;;;;;;;;;4987097;28;20102;-91
2023/03/06 17:38:29;;;;;;;41.40;20.98;;;;;;;;;;4998689;28;20045;-94
2023/03/06 17:41:02;;;;;;;43.42;21.15;;;;;;;;;;4995562;28;20360;-92
2023/03/06 17:43:34;;;;;;;57.55;25.80;;;;;;;;;;4995026;28;20034;-94
2023/03/06 17:46:38;;;;;;;57.08;26.35;;;;;;;;;;4988168;28;20042;-96
2023/03/06 17:49:07;;;;;;;57.13;27.55;;;;;;;;;;4958525;28;20042;-94
2023/03/06 17:52:03;;;;;;;138.75;69.22;;;;;;;;;;5008165;28;20014;-95
2023/03/06 17:54:31;;;;;;;158.45;75.35;;;;;;;;;;5016278;23;20082;-94
2023/03/06 17:57:04;;;;;;;198.65;95.13;;;;;;;;;;4980191;28;20556;-94
2023/03/06 17:59:30;;;;;;;58.65;28.83;;;;;;;;;;5039128;23;20363;-94
2023/03/06 18:01:57;;;;;;;50.58;24.70;;;;;;;;;;4948140;29;20030;-95
2023/03/06 18:04:37;;;;;;;;;;;;;;;;;;;;;
2023/03/06 18:07:22;;;;;;;55.17;29.35;;;;;;;;;;4968753;28;20067;-95
2023/03/06 18:10:29;;;;;;;57.92;30.08;;;;;;;;;;4932602;29;20044;-94
2023/03/06 18:12:57;;;;;;;64.72;34.58;;;;;;;;;;4952682;29;20110;-93
2023/03/06 18:15:27;;;;;;;59.25;31.25;;;;;;;;;;4947529;29;20106;-95
2023/03/06 18:17:55;;;;;;;51.67;27.08;;;;;;;;;;4942053;29;20492;-93
2023/03/06 18:20:46;;;;;;;56.45;30.60;;;;;;;;;;4946651;29;20031;-96
2023/03/06 18:23:29;;;;;;;58.95;28.27;;;;;;;;;;4970600;28;20039;-94
2023/03/06 18:26:28;;;;;;;47.60;25.00;;;;;;;;;;4963091;28;20082;-93
2023/03/06 18:29:07;;;;;;;48.45;24.10;;;;;;;;;;4941982;29;20117;-92
2023/03/06 18:32:10;;;;;;;;;;;;;;;;;;;;;
2023/03/06 18:34:26;;;;;;;49.58;24.58;;;;;;;;;;4941928;29;20267;-94
2023/03/06 18:36:53;;;;;;;51.20;23.98;;;;;;;;;;4927410;29;20031;-96
2023/03/06 18:39:26;;;;;;;49.50;23.38;;;;;;;;;;4963191;29;20189;-91
2023/03/06 18:41:55;;;;;;;50.05;23.17;;;;;;;;;;4943673;29;20031;-91
2023/03/06 18:44:21;;;;;;;43.00;21.27;;;;;;;;;;4946404;29;20131;-91
2023/03/06 18:46:50;;;;;;;42.08;21.73;;;;;;;;;;4944932;29;20383;-93
2023/03/06 18:49:46;;;;;;;36.72;19.95;;;;;;;;;;4948440;29;20392;-94
2023/03/06 18:55:13;;;;;;;46.58;22.90;;;;;;;;;;5016910;23;20074;-92
2023/03/06 18:57:51;;;;;;;44.88;22.80;;;;;;;;;;4988522;28;20039;-94
2023/03/06 19:21:22;;;;;;;36.90;19.13;;;;;;;;;;4933745;29;20099;-93
2023/03/06 19:23:49;;;;;;;36.85;18.95;;;;;;;;;;4923901;29;20094;-93
2023/03/06 19:26:19;;;;;;;38.78;17.73;;;;;;;;;;4920627;29;20027;-93
2023/03/06 19:28:47;;;;;;;36.60;18.98;;;;;;;;;;4903804;29;20028;-93
2023/03/06 20:37:26;;;;;;;49.60;25.60;;;;;;;;;;4916787;29;20100;-92
2023/03/06 20:43:44;;;;;;;55.38;27.10;;;;;;;;;;4876101;29;20105;-90
2023/03/06 20:46:30;;;;;;;50.08;26.40;;;;;;;;;;4872758;29;20034;-91
2023/03/06 21:01:34;;;;;;;42.22;20.10;;;;;;;;;;4824623;29;20046;-89
2023/03/06 21:04:31;;;;;;;36.78;19.58;;;;;;;;;;4826933;29;20050;-91
2023/03/06 22:04:37;;;;;;;;;;;;;;;;;;;;;
2023/03/06 22:07:37;;;;;;;41.38;18.50;;;;;;;;;;4869123;29;20075;-89
2023/03/06 22:29:52;;;;;;;42.97;20.75;;;;;;;;;;4898780;29;20409;-90
2023/03/06 22:35:50;;;;;;;53.53;23.85;;;;;;;;;;4900062;29;20063;-89
2023/03/06 22:46:37;;;;;;;53.85;23.65;;;;;;;;;;5155315;23;20046;-91
2023/03/06 22:52:39;;;;;;;58.03;26.35;;;;;;;;;;4935935;29;20055;-89
2023/03/06 22:59:11;;;;;;;61.50;26.45;;;;;;;;;;4841699;29;20115;-90
